Time;durP1;ratioP1;P1;durP2;ratioP2;P2;SDS_P1;SDS_P2;PMS_P1;PMS_P2;Temp;Humidity;BMP_temperature;BMP_pressure;BME280_temperature;BME280_humidity;BME280_pressure;Samples;Min_cycle;Max_cycle;Signal;HPM_P1;HPM_P2
2023/02/22 00:02:09;;;;;;;18.05;9.73;;;;;;;9.92;34.78;93793.59;4974557;28;20042;-75
2023/02/22 00:04:35;;;;;;;13.13;9.55;;;;;;;10.10;34.61;93824.41;4977994;28;20038;-75
2023/02/22 00:07:01;;;;;;;20.45;9.80;;;;;;;9.96;34.50;93794.53;4979577;28;20035;-75
2023/02/22 00:09:26;;;;;;;18.10;10.98;;;;;;;10.08;34.58;93813.31;4977270;28;20042;-76
2023/02/22 00:11:51;;;;;;;19.05;11.13;;;;;;;10.06;34.81;93812.84;4974891;28;20487;-75
2023/02/22 00:14:19;;;;;;;18.17;10.50;;;;;;;9.82;34.82;93799.19;4975774;28;20104;-77
2023/02/22 00:16:45;;;;;;;17.70;11.13;;;;;;;10.02;35.15;93830.50;4978721;28;20043;-76
2023/02/22 00:19:10;;;;;;;19.48;12.15;;;;;;;10.01;34.95;93815.66;4980170;28;20033;-75
2023/02/22 00:21:36;;;;;;;15.75;10.55;;;;;;;9.76;35.21;93826.97;4976475;28;20814;-76
2023/02/22 00:24:21;;;;;;;17.20;9.80;;;;;;;9.62;35.67;93816.47;4978326;28;20395;-75
2023/02/22 00:26:48;;;;;;;16.35;9.93;;;;;;;9.69;35.17;93810.69;4979549;28;20039;-74
2023/02/22 00:29:14;;;;;;;13.60;9.15;;;;;;;9.62;35.24;93815.69;4975899;28;20042;-75
2023/02/22 00:31:39;;;;;;;14.15;8.63;;;;;;;9.57;35.64;93807.84;4971292;28;20080;-76
2023/02/22 00:34:04;;;;;;;12.70;7.65;;;;;;;9.50;35.84;93818.09;4976922;28;20064;-74
2023/02/22 00:36:30;;;;;;;9.15;6.32;;;;;;;9.58;35.59;93825.34;4977679;28;20536;-75
2023/02/22 00:38:55;;;;;;;9.30;5.07;;;;;;;9.63;35.82;93818.03;4979160;28;20040;-75
2023/02/22 00:41:20;;;;;;;7.20;4.47;;;;;;;9.56;36.02;93807.06;4976236;28;20042;-76
2023/02/22 00:43:47;;;;;;;4.50;2.63;;;;;;;9.62;36.11;93815.69;4977852;28;20161;-77
2023/02/22 00:46:13;;;;;;;5.50;2.63;;;;;;;9.36;36.34;93796.97;4977662;28;20022;-75
2023/02/22 00:48:39;;;;;;;4.00;2.47;;;;;;;9.36;36.37;93792.44;5007482;28;20569;-75
2023/02/22 00:51:04;;;;;;;6.95;3.40;;;;;;;9.35;36.53;93806.78;4975845;28;20529;-76
2023/02/22 00:53:30;;;;;;;4.38;2.55;;;;;;;9.26;36.48;93792.72;4975875;28;20401;-75
2023/02/22 00:55:55;;;;;;;5.10;2.78;;;;;;;9.36;36.35;93795.09;4974653;28;20046;-75
2023/02/22 00:58:21;;;;;;;3.35;1.80;;;;;;;9.34;36.19;93794.59;4978910;28;20118;-76
2023/02/22 01:00:46;;;;;;;4.55;1.65;;;;;;;9.41;35.74;93792.31;4978944;28;20045;-75
2023/02/22 01:03:15;;;;;;;2.97;1.80;;;;;;;9.24;35.97;93764.91;4976409;28;20066;-75
2023/02/22 01:05:41;;;;;;;4.10;2.30;;;;;;;9.38;36.43;93781.53;4992072;28;20029;-75
2023/02/22 01:08:09;;;;;;;2.75;1.55;;;;;;;9.45;36.39;93787.94;4977917;28;20113;-75
2023/02/22 01:10:35;;;;;;;3.33;1.67;;;;;;;9.34;36.29;93768.06;4975997;28;20503;-76
2023/02/22 01:13:07;;;;;;;3.78;1.63;;;;;;;9.52;36.12;93771.59;4977177;28;20026;-76
2023/02/22 01:15:33;;;;;;;4.90;1.73;;;;;;;9.36;35.99;93754.50;4978312;28;20045;-76
2023/02/22 01:17:58;;;;;;;2.58;1.83;;;;;;;9.63;36.08;93782.72;4975875;28;20042;-75
2023/02/22 01:20:25;;;;;;;3.95;1.48;;;;;;;9.45;36.05;93766.72;4978146;28;20038;-75
2023/02/22 01:22:52;;;;;;;2.33;1.70;;;;;;;9.41;35.60;93765.78;4976329;28;20520;-75
2023/02/22 01:25:27;;;;;;;2.25;1.60;;;;;;;9.45;36.10;93771.25;4977678;28;20122;-78
2023/02/22 01:27:53;;;;;;;2.65;1.75;;;;;;;9.28;35.97;93734.81;4975572;28;20778;-74
2023/02/22 01:30:22;;;;;;;4.80;1.50;;;;;;;9.47;35.89;93770.94;4975729;28;20510;-78
2023/02/22 01:32:49;;;;;;;2.72;1.52;;;;;;;9.47;36.06;93755.81;4976122;28;20049;-78
2023/02/22 01:35:18;;;;;;;1.52;1.40;;;;;;;9.58;35.80;93766.94;4967684;28;20239;-79
2023/02/22 01:37:43;;;;;;;3.05;1.40;;;;;;;9.78;35.57;93761.81;4977691;28;20551;-77
2023/02/22 01:40:16;;;;;;;2.47;1.67;;;;;;;9.81;35.19;93763.09;4976351;28;20046;-77
2023/02/22 01:42:43;;;;;;;2.25;1.40;;;;;;;9.86;34.95;93762.94;4975826;28;20026;-77
2023/02/22 01:45:33;;;;;;;2.65;1.52;;;;;;;9.86;35.68;93763.72;4975184;28;20046;-77
2023/02/22 01:48:03;;;;;;;2.13;1.70;;;;;;;9.74;35.83;93755.56;4972458;28;20034;-76
2023/02/22 01:50:34;;;;;;;2.05;1.60;;;;;;;9.80;36.10;93764.19;4979103;28;20113;-77
2023/02/22 01:53:01;;;;;;;2.35;1.75;;;;;;;9.74;36.25;93770.72;4976604;28;20034;-77
2023/02/22 01:55:27;;;;;;;1.75;1.35;;;;;;;9.43;36.29;93747.69;4975409;28;20047;-77
2023/02/22 01:57:52;;;;;;;2.95;1.42;;;;;;;9.43;36.13;93766.25;4975083;28;20569;-77
2023/02/22 02:00:20;;;;;;;10.13;6.10;;;;;;;9.02;36.52;93745.25;4974960;28;20042;-77
2023/02/22 02:02:58;;;;;;;13.68;5.82;;;;;;;9.10;36.44;93756.22;4972079;28;20069;-77
2023/02/22 02:05:25;;;;;;;11.65;5.50;;;;;;;9.32;36.50;93777.44;4966783;28;20034;-76
2023/02/22 02:07:52;;;;;;;8.75;4.72;;;;;;;9.27;36.44;93778.34;4977132;28;20038;-76
2023/02/22 02:10:18;;;;;;;15.07;5.93;;;;;;;9.07;36.54;93762.91;4977426;28;20514;-76
2023/02/22 02:12:47;;;;;;;9.18;4.50;;;;;;;9.20;36.65;93764.72;4983878;28;22002;-76
2023/02/22 02:15:24;;;;;;;5.53;2.25;;;;;;;9.31;36.82;93767.91;4976063;28;20034;-77
2023/02/22 02:17:51;;;;;;;1.85;1.70;;;;;;;9.12;37.27;93762.03;4977657;28;20137;-76
2023/02/22 02:20:50;;;;;;;2.65;2.25;;;;;;;9.02;37.11;93771.00;4975952;28;20077;-76
2023/02/22 02:23:29;;;;;;;7.70;4.13;;;;;;;9.04;36.63;93776.81;4974961;28;21350;-76
2023/02/22 02:26:19;;;;;;;3.33;2.40;;;;;;;8.90;37.42;93778.75;4966473;28;20831;-76
2023/02/22 02:29:22;;;;;;;5.65;3.60;;;;;;;8.86;37.32;93789.16;4977730;28;20046;-76
2023/02/22 02:32:17;;;;;;;11.18;6.05;;;;;;;8.81;37.31;93777.88;5008733;28;20340;-76
2023/02/22 02:34:50;;;;;;;16.13;7.78;;;;;;;8.55;37.31;93749.34;4975375;28;20069;-76
2023/02/22 02:37:32;;;;;;;17.23;9.25;;;;;;;8.78;37.66;93791.75;4964965;28;20026;-76
2023/02/22 02:40:10;;;;;;;13.68;8.18;;;;;;;8.76;37.56;93799.22;4975439;28;20030;-77
2023/02/22 02:42:43;;;;;;;11.93;7.32;;;;;;;8.53;37.98;93775.38;4976654;28;20049;-76
2023/02/22 02:45:20;;;;;;;13.73;7.90;;;;;;;8.56;38.01;93774.75;4974062;28;20034;-77
2023/02/22 02:47:52;;;;;;;13.00;7.45;;;;;;;8.58;37.94;93787.72;4975334;28;20045;-76
2023/02/22 02:50:29;;;;;;;11.27;7.65;;;;;;;8.69;37.61;93799.66;4972360;28;20118;-76
2023/02/22 02:53:00;;;;;;;13.27;7.43;;;;;;;8.50;38.23;93796.41;4971549;28;20041;-77
2023/02/22 02:55:28;;;;;;;13.60;7.28;;;;;;;8.51;38.17;93798.72;4972359;28;20030;-76
2023/02/22 02:57:53;;;;;;;11.68;7.63;;;;;;;8.45;38.25;93807.91;4977345;28;20061;-77
2023/02/22 03:00:24;;;;;;;9.85;6.72;;;;;;;8.35;38.23;93797.53;4976340;28;20042;-77
2023/02/22 03:03:15;;;;;;;10.40;6.22;;;;;;;8.34;38.48;93813.72;4973604;28;20572;-76
2023/02/22 03:06:09;;;;;;;15.52;6.20;;;;;;;8.20;38.80;93811.09;4975375;28;20089;-76
2023/02/22 03:09:03;;;;;;;11.40;6.85;;;;;;;8.19;38.86;93804.22;4975871;28;20130;-76
2023/02/22 03:11:47;;;;;;;9.40;6.30;;;;;;;8.05;39.19;93790.22;4923620;28;20039;-76
2023/02/22 03:14:20;;;;;;;10.27;6.13;;;;;;;8.07;39.32;93803.97;4973305;28;20089;-76
2023/02/22 03:16:59;;;;;;;4.82;3.75;;;;;;;8.13;39.46;93802.75;4975571;28;20038;-76
2023/02/22 03:19:37;;;;;;;4.68;3.00;;;;;;;8.24;39.42;93804.13;4974474;28;20034;-75
2023/02/22 03:22:08;;;;;;;5.13;3.10;;;;;;;8.30;39.54;93802.94;4976048;28;20039;-76
2023/02/22 03:24:51;;;;;;;3.60;2.33;;;;;;;8.07;39.78;93793.38;4975595;28;20397;-76
2023/02/22 03:27:45;;;;;;;5.55;2.47;;;;;;;8.00;39.99;93803.56;4973522;28;20138;-77
2023/02/22 03:30:22;;;;;;;5.20;3.25;;;;;;;7.85;39.50;93766.81;4975151;28;20062;-75
2023/02/22 03:32:53;;;;;;;5.38;3.30;;;;;;;8.03;39.63;93806.41;4974490;28;20541;-76
2023/02/22 03:35:24;;;;;;;3.75;3.25;;;;;;;7.94;40.00;93794.94;4971999;28;20741;-77
2023/02/22 03:37:55;;;;;;;5.88;3.35;;;;;;;7.87;39.88;93777.91;4975284;28;20059;-76
2023/02/22 03:40:32;;;;;;;3.22;2.70;;;;;;;8.01;40.20;93805.94;5005602;28;20238;-76
2023/02/22 03:43:04;;;;;;;4.97;3.40;;;;;;;7.90;40.13;93804.56;4974079;28;20557;-77
2023/02/22 03:45:30;;;;;;;7.88;2.72;;;;;;;7.93;40.03;93782.78;4974174;28;20843;-76
2023/02/22 03:48:16;;;;;;;5.13;2.78;;;;;;;7.94;40.44;93799.47;4975059;28;20125;-76
2023/02/22 03:50:41;;;;;;;;;;;;;;;8.02;41.03;93796.88;4975160;28;20038;-76
2023/02/22 03:53:07;;;;;;;5.65;3.65;;;;;;;8.11;40.04;93789.03;4975394;28;20328;-77
2023/02/22 03:55:33;;;;;;;6.63;2.85;;;;;;;8.23;40.65;93799.91;4975009;28;20065;-76
2023/02/22 03:58:03;;;;;;;3.88;2.38;;;;;;;8.08;40.89;93779.81;4975466;28;20084;-76
2023/02/22 04:00:31;;;;;;;4.32;2.47;;;;;;;8.25;40.58;93800.41;4973280;28;20415;-77
2023/02/22 04:02:57;;;;;;;4.55;2.30;;;;;;;8.07;40.89;93782.78;4973476;28;20042;-76
2023/02/22 04:05:23;;;;;;;6.05;2.78;;;;;;;8.22;40.65;93800.97;4974544;28;20031;-76
2023/02/22 04:07:51;;;;;;;3.88;2.22;;;;;;;8.22;40.71;93798.31;4972896;28;20062;-77
2023/02/22 04:10:17;;;;;;;7.80;4.03;;;;;;;8.19;40.43;93780.38;4968366;28;20089;-77
2023/02/22 04:12:42;;;;;;;10.18;6.53;;;;;;;8.26;40.33;93795.88;4974081;28;20022;-77
2023/02/22 04:15:11;;;;;;;11.40;5.43;;;;;;;8.05;40.41;93785.72;4972905;28;21089;-76
2023/02/22 04:17:36;;;;;;;13.00;7.38;;;;;;;8.05;40.30;93769.81;4973349;28;20438;-76
2023/02/22 04:20:03;;;;;;;18.00;10.57;;;;;;;8.11;40.23;93779.25;4973806;28;20030;-76
2023/02/22 04:22:29;;;;;;;17.50;10.90;;;;;;;8.14;40.06;93770.69;4975309;28;20687;-76
2023/02/22 04:24:54;;;;;;;16.92;11.45;;;;;;;8.27;40.44;93776.22;4976335;28;20030;-76
2023/02/22 04:27:20;;;;;;;11.75;7.20;;;;;;;8.34;40.07;93774.75;4973517;28;20042;-76
2023/02/22 04:29:45;;;;;;;15.73;9.27;;;;;;;8.55;39.85;93794.41;4975340;28;20038;-76
2023/02/22 04:32:10;;;;;;;10.32;6.82;;;;;;;8.55;40.11;93797.06;4973654;28;20142;-76
2023/02/22 04:34:36;;;;;;;4.78;3.17;;;;;;;8.68;39.76;93794.66;4972422;28;20492;-75
2023/02/22 04:37:02;;;;;;;6.72;5.22;;;;;;;8.68;39.82;93786.69;4973550;28;20022;-77
2023/02/22 04:39:28;;;;;;;8.75;5.32;;;;;;;8.27;40.14;93779.66;4972767;28;20035;-76
2023/02/22 04:41:53;;;;;;;12.70;5.07;;;;;;;7.54;41.44;93807.09;5008203;28;20454;-76
2023/02/22 04:44:18;;;;;;;19.60;6.90;;;;;;;7.84;40.69;93811.03;4975389;28;20038;-76
2023/02/22 04:46:45;;;;;;;15.63;5.85;;;;;;;8.14;40.05;93809.63;4979094;28;20096;-76
2023/02/22 04:49:10;;;;;;;18.23;9.80;;;;;;;7.69;40.83;93806.81;4979333;28;20054;-75
2023/02/22 04:51:36;;;;;;;15.10;7.53;;;;;;;8.01;40.63;93805.16;4979001;28;20705;-75
2023/02/22 04:54:02;;;;;;;18.35;6.75;;;;;;;7.86;40.62;93773.69;4976466;28;20030;-77
2023/02/22 04:56:27;;;;;;;18.48;6.70;;;;;;;7.88;40.76;93788.19;4976135;28;20034;-76
2023/02/22 04:58:53;;;;;;;14.68;4.97;;;;;;;7.94;40.48;93788.88;4974845;28;20592;-75
2023/02/22 05:01:18;;;;;;;15.20;4.32;;;;;;;7.99;40.86;93791.41;4977483;28;20606;-76
2023/02/22 05:03:44;;;;;;;10.02;4.13;;;;;;;7.86;40.65;93781.63;4977913;28;20080;-75
2023/02/22 05:06:11;;;;;;;8.68;3.83;;;;;;;8.03;40.79;93797.66;4977967;28;20030;-77
2023/02/22 05:08:37;;;;;;;10.50;4.75;;;;;;;8.04;40.64;93799.25;4974879;28;20168;-76
2023/02/22 05:11:05;;;;;;;6.93;4.40;;;;;;;7.85;41.08;93790.66;4976664;28;20039;-76
2023/02/22 05:13:30;;;;;;;10.60;4.47;;;;;;;7.84;40.97;93797.81;4976335;28;20470;-76
2023/02/22 05:15:56;;;;;;;9.70;4.82;;;;;;;7.79;41.04;93797.13;4979247;28;21419;-76
2023/02/22 05:18:21;;;;;;;9.38;5.35;;;;;;;7.77;40.83;93797.44;4977455;28;20046;-76
2023/02/22 05:20:47;;;;;;;10.57;5.80;;;;;;;7.88;40.59;93806.72;4976602;28;20030;-76
2023/02/22 05:23:12;;;;;;;12.13;5.78;;;;;;;7.69;41.02;93806.00;4974776;28;20050;-75
2023/02/22 05:25:38;;;;;;;11.27;7.10;;;;;;;7.59;41.08;93803.56;4977596;28;20216;-76
2023/02/22 05:28:09;;;;;;;10.10;7.25;;;;;;;7.64;41.12;93822.78;4976377;28;20411;-75
2023/02/22 05:30:38;;;;;;;13.00;7.07;;;;;;;7.64;41.10;93828.06;4977379;28;20519;-76
2023/02/22 05:33:04;;;;;;;9.32;6.47;;;;;;;7.25;41.57;93783.56;4976919;28;20034;-75
2023/02/22 05:35:29;;;;;;;13.18;6.45;;;;;;;7.28;41.74;93808.66;4977063;28;20041;-76
2023/02/22 05:37:55;;;;;;;11.80;7.00;;;;;;;7.47;41.52;93838.47;4974366;28;20117;-76
2023/02/22 05:40:23;;;;;;;12.32;6.60;;;;;;;7.38;41.65;93839.44;4975618;28;20049;-76
2023/02/22 05:42:51;;;;;;;15.80;7.28;;;;;;;7.40;42.13;93842.56;4975761;28;20514;-75
2023/02/22 05:45:18;;;;;;;10.40;7.13;;;;;;;7.29;42.10;93837.44;4976416;28;20116;-76
2023/02/22 05:47:44;;;;;;;17.08;6.45;;;;;;;7.17;42.54;93841.63;4973962;28;20034;-75
2023/02/22 05:50:10;;;;;;;18.90;8.18;;;;;;;7.04;42.54;93821.25;4976552;28;20061;-75
2023/02/22 05:52:37;;;;;;;14.18;7.00;;;;;;;7.09;42.17;93826.44;4975264;28;20042;-74
2023/02/22 05:55:03;;;;;;;17.55;7.45;;;;;;;7.02;41.94;93803.00;4977563;28;20030;-75
2023/02/22 05:57:29;;;;;;;13.10;6.93;;;;;;;7.33;42.19;93853.53;4975476;28;20038;-75
2023/02/22 05:59:54;;;;;;;21.75;11.65;;;;;;;7.05;42.85;93847.38;4977723;28;20045;-77
2023/02/22 06:02:19;;;;;;;18.25;9.73;;;;;;;7.11;42.35;93837.50;4974750;28;20503;-77
2023/02/22 06:04:45;;;;;;;19.98;10.93;;;;;;;6.98;42.46;93839.03;4976418;28;20526;-76
2023/02/22 06:07:12;;;;;;;18.10;11.38;;;;;;;7.07;42.57;93862.97;4976186;28;20029;-76
2023/02/22 06:09:38;;;;;;;20.02;11.52;;;;;;;6.95;42.82;93860.75;4976398;28;20636;-76
2023/02/22 06:12:04;;;;;;;17.67;10.75;;;;;;;7.22;42.44;93862.72;4976421;28;20065;-75
2023/02/22 06:14:29;;;;;;;19.92;12.38;;;;;;;7.26;42.39;93859.19;4976618;28;20034;-75
2023/02/22 06:16:56;;;;;;;16.23;11.05;;;;;;;6.66;42.94;93852.22;4978267;28;20663;-76
2023/02/22 06:19:22;;;;;;;24.33;12.13;;;;;;;6.47;44.01;93862.00;4976656;28;20026;-75
2023/02/22 06:21:55;;;;;;;27.10;13.00;;;;;;;6.76;43.55;93867.94;4975119;28;20479;-75
2023/02/22 06:24:22;;;;;;;30.73;14.27;;;;;;;6.83;43.34;93860.44;4968403;28;20572;-76
2023/02/22 06:26:56;;;;;;;30.25;13.63;;;;;;;7.19;42.39;93865.94;4975032;28;20080;-75
2023/02/22 06:29:23;;;;;;;33.78;14.48;;;;;;;7.38;42.51;93861.38;4973821;28;20073;-75
2023/02/22 06:31:48;;;;;;;28.85;13.50;;;;;;;7.45;42.06;93853.03;4975843;28;20616;-76
2023/02/22 06:34:13;;;;;;;23.40;13.98;;;;;;;7.37;42.46;93848.44;4974472;28;20022;-75
2023/02/22 06:36:39;;;;;;;29.77;13.48;;;;;;;7.54;42.00;93859.22;4973384;28;20072;-75
2023/02/22 06:39:04;;;;;;;30.25;14.77;;;;;;;7.51;41.94;93828.84;4974083;28;20042;-76
2023/02/22 06:41:30;;;;;;;25.55;13.85;;;;;;;7.84;41.64;93852.63;4974245;28;20393;-75
2023/02/22 06:43:55;;;;;;;23.55;13.38;;;;;;;7.92;41.50;93846.66;4975404;28;20695;-76
2023/02/22 06:46:20;;;;;;;29.98;14.25;;;;;;;8.11;41.07;93842.03;4972941;28;20038;-75
2023/02/22 06:48:46;;;;;;;26.00;12.73;;;;;;;8.10;41.54;93840.44;4975621;28;20094;-76
2023/02/22 06:51:11;;;;;;;32.00;14.18;;;;;;;7.75;42.29;93843.78;4974297;28;20049;-74
2023/02/22 06:53:37;;;;;;;32.05;15.15;;;;;;;6.98;44.36;93840.91;4964281;28;20501;-75
2023/02/22 06:56:02;;;;;;;32.15;15.55;;;;;;;6.70;44.89;93840.78;4967655;28;20050;-76
2023/02/22 06:58:30;;;;;;;28.08;15.35;;;;;;;7.38;43.24;93824.34;4970916;28;20046;-75
2023/02/22 07:00:55;;;;;;;28.33;15.98;;;;;;;6.74;44.10;93857.66;4969923;28;20068;-75
2023/02/22 07:03:21;;;;;;;27.63;14.55;;;;;;;7.50;42.59;93863.53;4969855;28;20046;-76
2023/02/22 07:05:46;;;;;;;29.73;15.02;;;;;;;7.29;42.92;93871.03;4975445;28;20573;-75
2023/02/22 07:08:12;;;;;;;23.52;15.23;;;;;;;7.39;42.37;93833.81;4974673;28;20042;-76
2023/02/22 07:10:38;;;;;;;29.33;15.23;;;;;;;7.85;41.49;93843.59;4971922;28;20046;-76
2023/02/22 07:13:06;;;;;;;32.50;16.10;;;;;;;8.27;41.09;93872.41;4975294;28;20022;-76
2023/02/22 07:15:33;;;;;;;29.33;17.02;;;;;;;8.31;40.87;93867.31;4973447;28;20065;-76
2023/02/22 07:17:59;;;;;;;32.70;16.67;;;;;;;8.34;41.32;93862.19;4972804;28;20042;-77
2023/02/22 07:20:26;;;;;;;28.05;17.52;;;;;;;8.57;40.99;93860.38;4975553;28;20053;-75
2023/02/22 07:22:52;;;;;;;31.05;17.58;;;;;;;8.61;40.93;93849.97;4975174;28;20832;-75
2023/02/22 07:25:18;;;;;;;26.45;17.13;;;;;;;8.70;41.00;93856.13;4971284;28;20037;-77
2023/02/22 07:27:44;;;;;;;38.67;18.52;;;;;;;7.97;42.40;93865.09;4962880;28;20149;-76
2023/02/22 07:30:24;;;;;;;36.90;18.00;;;;;;;7.84;43.04;93857.91;4972678;28;20405;-75
2023/02/22 07:32:52;;;;;;;37.72;19.05;;;;;;;7.58;43.25;93854.94;4975254;28;20471;-76
2023/02/22 07:35:22;;;;;;;34.20;18.50;;;;;;;8.26;42.41;93875.38;4971984;28;20046;-75
2023/02/22 07:37:48;;;;;;;37.38;19.77;;;;;;;7.81;43.19;93869.09;4972507;28;20042;-75
2023/02/22 07:40:15;;;;;;;42.90;20.85;;;;;;;8.00;42.48;93867.13;4974095;28;20362;-74
2023/02/22 07:42:58;;;;;;;35.47;18.92;;;;;;;8.62;41.42;93876.16;4965024;28;20117;-75
2023/02/22 07:45:26;;;;;;;29.40;19.17;;;;;;;8.09;42.20;93870.66;4972536;28;20093;-76
2023/02/22 07:47:51;;;;;;;33.53;18.85;;;;;;;8.70;41.47;93858.78;4969758;28;20069;-76
2023/02/22 07:50:18;;;;;;;34.45;17.90;;;;;;;8.88;40.58;93842.69;4971292;28;20205;-76
2023/02/22 07:52:46;;;;;;;35.40;17.52;;;;;;;9.16;40.32;93851.34;4972401;28;20034;-75
2023/02/22 07:55:14;;;;;;;36.38;17.58;;;;;;;8.65;40.53;93797.91;4972746;28;20026;-76
2023/02/22 07:57:39;;;;;;;36.53;18.10;;;;;;;9.07;40.59;93842.50;4974272;28;20026;-77
2023/02/22 08:00:06;;;;;;;31.35;18.25;;;;;;;9.38;39.97;93847.88;4972190;28;20431;-75
2023/02/22 08:02:31;;;;;;;26.42;18.55;;;;;;;8.52;41.53;93845.38;4974857;28;20218;-75
2023/02/22 08:04:56;;;;;;;28.63;17.85;;;;;;;8.83;41.05;93820.81;4973298;28;20464;-76
2023/02/22 08:07:22;;;;;;;27.90;17.50;;;;;;;8.96;40.28;93807.47;4969046;28;20026;-76
2023/02/22 08:09:47;;;;;;;29.42;18.00;;;;;;;9.22;40.55;93846.69;4971747;28;20045;-75
2023/02/22 08:12:12;;;;;;;28.33;16.80;;;;;;;9.38;40.28;93830.09;4971858;28;20449;-75
2023/02/22 08:14:38;;;;;;;33.97;15.05;;;;;;;9.71;39.46;93841.19;4972105;28;20046;-75
2023/02/22 08:17:03;;;;;;;32.58;16.25;;;;;;;9.95;39.27;93840.00;4978003;28;20035;-75
2023/02/22 08:19:28;;;;;;;27.88;14.43;;;;;;;9.89;39.02;93836.69;4976004;28;20068;-75
2023/02/22 08:21:54;;;;;;;23.67;14.18;;;;;;;10.10;38.77;93832.41;4974310;28;20569;-76
2023/02/22 08:24:19;;;;;;;30.20;15.35;;;;;;;10.29;37.95;93824.94;4977357;28;20033;-76
2023/02/22 08:26:46;;;;;;;27.15;15.43;;;;;;;10.57;37.14;93836.09;4976031;28;20077;-75
2023/02/22 08:29:13;;;;;;;28.15;16.63;;;;;;;10.68;37.32;93836.56;4981472;28;20042;-75
2023/02/22 08:31:39;;;;;;;24.35;15.00;;;;;;;10.50;37.52;93830.47;4976322;28;20034;-75
2023/02/22 08:34:05;;;;;;;29.13;15.18;;;;;;;10.68;37.33;93841.88;4975961;28;20422;-76
2023/02/22 08:36:31;;;;;;;30.58;14.57;;;;;;;10.84;36.97;93839.56;4974029;28;20054;-75
2023/02/22 08:38:57;;;;;;;24.95;13.63;;;;;;;11.14;36.59;93839.38;4974835;28;20042;-75
2023/02/22 08:41:22;;;;;;;22.17;13.85;;;;;;;11.26;36.18;93817.41;4975841;28;20388;-76
2023/02/22 08:43:48;;;;;;;27.45;14.15;;;;;;;11.21;36.33;93816.81;4975850;28;20042;-76
2023/02/22 08:46:15;;;;;;;22.88;12.98;;;;;;;11.36;36.18;93824.28;4975763;28;20472;-74
2023/02/22 08:48:49;;;;;;;22.65;13.70;;;;;;;11.33;36.20;93832.91;4973787;28;20022;-75
2023/02/22 08:51:15;;;;;;;24.50;13.77;;;;;;;10.90;36.56;93783.22;4973416;28;20062;-76
2023/02/22 08:53:40;;;;;;;19.52;13.32;;;;;;;11.26;36.66;93827.28;4977206;28;20573;-76
2023/02/22 08:56:05;;;;;;;22.55;13.63;;;;;;;11.35;36.07;93807.53;4976840;28;20030;-75
2023/02/22 08:58:31;;;;;;;22.98;13.30;;;;;;;11.30;35.98;93820.22;4971237;28;20046;-75
2023/02/22 09:00:56;;;;;;;25.13;14.15;;;;;;;11.54;35.63;93828.53;4977203;28;20030;-75
2023/02/22 09:03:22;;;;;;;19.80;12.40;;;;;;;11.51;35.85;93805.94;4975772;28;20062;-75
2023/02/22 09:05:47;;;;;;;23.52;13.50;;;;;;;11.54;36.66;93825.88;4977134;28;20092;-75
2023/02/22 09:08:15;;;;;;;29.40;14.02;;;;;;;11.37;37.06;93831.19;4976083;28;20049;-78
2023/02/22 09:10:40;;;;;;;18.73;11.65;;;;;;;11.86;36.21;93827.13;4974588;28;20146;-77
2023/02/22 09:13:05;;;;;;;18.73;11.23;;;;;;;11.80;36.02;93797.22;4977925;28;20028;-76
2023/02/22 09:15:34;;;;;;;17.05;7.90;;;;;;;12.02;35.97;93820.97;4978206;28;20034;-74
2023/02/22 09:18:00;;;;;;;21.40;7.10;;;;;;;12.13;36.13;93823.22;4977285;28;20384;-77
2023/02/22 09:20:26;;;;;;;11.65;6.60;;;;;;;12.18;35.90;93823.06;4977470;28;20125;-77
2023/02/22 09:22:52;;;;;;;14.70;6.68;;;;;;;12.22;35.58;93818.66;4976562;28;20042;-76
2023/02/22 09:25:21;;;;;;;8.38;4.93;;;;;;;12.17;35.70;93821.50;4975843;28;20181;-77
2023/02/22 09:27:51;;;;;;;7.93;4.65;;;;;;;12.21;36.21;93822.44;4977356;28;20033;-76
2023/02/22 09:30:37;;;;;;;9.02;5.38;;;;;;;12.34;35.36;93824.84;4978784;28;20047;-77
2023/02/22 09:33:08;;;;;;;11.38;5.85;;;;;;;12.21;35.94;93823.22;4976086;28;20039;-76
2023/02/22 09:35:35;;;;;;;9.20;5.95;;;;;;;12.08;36.26;93802.13;4977868;28;20038;-76
2023/02/22 09:38:02;;;;;;;7.88;4.50;;;;;;;12.23;36.11;93809.53;4973214;28;20034;-76
2023/02/22 09:40:39;;;;;;;7.10;4.30;;;;;;;12.41;35.47;93814.47;4974948;28;20046;-76
2023/02/22 09:43:30;;;;;;;12.23;4.97;;;;;;;12.47;35.45;93809.69;4974312;28;20127;-76
2023/02/22 09:46:10;;;;;;;10.75;4.53;;;;;;;12.57;34.89;93819.19;4977079;28;20053;-76
2023/02/22 09:48:47;;;;;;;8.38;4.75;;;;;;;12.68;35.06;93813.19;4973857;28;20046;-76
2023/02/22 09:51:16;;;;;;;8.00;4.68;;;;;;;12.32;35.16;93799.63;4976287;28;20047;-77
2023/02/22 09:53:45;;;;;;;9.20;4.50;;;;;;;12.33;35.65;93798.50;4966047;28;20057;-76
2023/02/22 09:56:13;;;;;;;8.30;5.03;;;;;;;12.43;35.41;93798.91;4975306;28;20549;-76
2023/02/22 09:58:48;;;;;;;11.70;5.00;;;;;;;12.38;35.47;93806.31;4975844;28;20034;-76
2023/02/22 10:01:22;;;;;;;10.20;4.30;;;;;;;12.37;35.68;93810.09;4974269;28;20062;-76
2023/02/22 10:03:57;;;;;;;7.55;3.95;;;;;;;12.62;34.59;93800.34;4974509;28;20023;-76
2023/02/22 10:06:24;;;;;;;6.35;4.00;;;;;;;12.75;35.13;93799.34;4973697;28;20030;-76
2023/02/22 10:08:55;;;;;;;7.90;3.80;;;;;;;12.82;34.87;93760.31;4963662;28;20039;-77
2023/02/22 10:11:41;;;;;;;6.80;3.90;;;;;;;12.94;34.56;93772.16;4975713;28;20663;-76
2023/02/22 10:14:32;;;;;;;8.38;3.85;;;;;;;12.84;34.95;93771.47;5004488;28;20038;-76
2023/02/22 10:17:09;;;;;;;5.45;3.53;;;;;;;13.01;34.43;93769.72;4965527;28;20066;-77
2023/02/22 10:20:00;;;;;;;8.23;3.35;;;;;;;13.11;33.95;93772.00;4973463;28;20596;-76
2023/02/22 10:22:51;;;;;;;7.10;4.32;;;;;;;12.96;34.06;93735.25;4976166;28;20033;-76
2023/02/22 10:25:20;;;;;;;4.47;2.85;;;;;;;13.06;33.86;93730.25;4974747;28;20018;-76
2023/02/22 10:27:55;;;;;;;4.15;3.28;;;;;;;13.33;33.80;93747.56;4974546;28;20026;-76
2023/02/22 10:30:25;;;;;;;6.75;3.70;;;;;;;13.34;33.88;93722.44;4973001;28;20038;-76
2023/02/22 10:33:11;;;;;;;9.00;4.28;;;;;;;13.30;34.11;93726.84;4975001;28;20096;-76
2023/02/22 10:35:40;;;;;;;10.90;4.38;;;;;;;13.35;34.31;93731.97;4973575;28;20034;-76
2023/02/22 10:38:23;;;;;;;6.65;2.95;;;;;;;13.50;33.52;93728.66;4973206;28;20132;-75
2023/02/22 10:40:55;;;;;;;4.57;3.38;;;;;;;13.64;32.56;93728.38;4972005;28;20152;-76
2023/02/22 10:43:22;;;;;;;6.30;2.45;;;;;;;13.55;33.01;93709.75;4964633;28;20108;-76
2023/02/22 10:45:50;;;;;;;6.90;3.20;;;;;;;13.56;32.38;93710.53;4974455;28;20026;-77
2023/02/22 10:48:19;;;;;;;6.63;2.70;;;;;;;13.68;32.29;93713.25;4973396;28;20622;-76
2023/02/22 10:50:46;;;;;;;6.05;3.22;;;;;;;13.85;31.85;93709.53;4974146;28;20128;-76
2023/02/22 10:53:14;;;;;;;7.45;3.58;;;;;;;13.89;33.09;93710.44;4974901;28;20080;-75
2023/02/22 10:56:08;;;;;;;9.18;3.47;;;;;;;13.82;33.24;93707.56;4974049;28;20667;-77
2023/02/22 10:58:40;;;;;;;4.00;2.38;;;;;;;13.84;32.10;93710.69;4963631;28;20314;-76
2023/02/22 11:01:26;;;;;;;3.60;2.15;;;;;;;13.80;31.22;93696.41;4977592;28;20034;-76
2023/02/22 11:04:11;;;;;;;4.05;2.53;;;;;;;13.82;31.56;93694.97;4976069;28;20064;-76
2023/02/22 11:06:38;;;;;;;6.72;2.83;;;;;;;13.72;32.25;93695.41;4973120;28;20046;-76
2023/02/22 11:09:21;;;;;;;5.30;3.35;;;;;;;13.94;32.54;93694.94;4971336;28;20034;-76
2023/02/22 11:11:47;;;;;;;5.68;3.50;;;;;;;13.78;33.03;93701.31;4974671;28;20121;-77
2023/02/22 11:14:29;;;;;;;6.70;2.60;;;;;;;13.61;31.95;93700.44;4988040;28;20042;-76
2023/02/22 11:16:57;;;;;;;4.63;2.80;;;;;;;13.25;32.18;93660.34;4975338;28;20050;-77
2023/02/22 11:19:27;;;;;;;5.03;2.28;;;;;;;13.56;31.91;93679.25;4974331;28;20052;-76
2023/02/22 11:22:08;;;;;;;4.43;2.38;;;;;;;13.41;32.81;93687.91;4969807;28;20484;-76
2023/02/22 11:24:44;;;;;;;9.07;3.30;;;;;;;13.73;32.88;93689.75;4975928;28;20074;-76
2023/02/22 11:27:24;;;;;;;10.30;3.22;;;;;;;13.85;32.30;93669.44;4971442;28;20050;-76
2023/02/22 11:29:50;;;;;;;5.68;3.10;;;;;;;13.90;32.48;93655.84;4966328;28;20052;-76
2023/02/22 11:32:21;;;;;;;7.70;3.63;;;;;;;14.22;31.35;93673.63;4974684;28;20073;-76
2023/02/22 11:34:48;;;;;;;5.95;2.85;;;;;;;13.92;34.30;93661.66;4967052;28;20655;-77
2023/02/22 11:37:16;;;;;;;3.30;2.75;;;;;;;14.05;31.69;93673.88;4973512;28;20026;-77
2023/02/22 11:39:43;;;;;;;3.15;2.28;;;;;;;14.09;31.41;93672.06;4974724;28;20030;-77
2023/02/22 11:42:25;;;;;;;3.53;2.75;;;;;;;14.06;31.26;93646.03;4972729;28;20058;-78
2023/02/22 11:45:26;;;;;;;2.78;2.35;;;;;;;14.22;30.70;93667.50;4974163;28;20506;-77